首页
METAR-TAF:

METAR-TAF

机场 :

里士满国际机场

里士满, 弗吉尼亚州, 美国

纬度: 37-30-40N, 经度: 077-19-24W, 海拔: 51米

当前天气观测

该预报发布于9分钟前的15:54 UTC
风速5节,风向南转西南
温度 28°C
湿度 70%
气压 1017 hPa
能見度: 14.5公里
多云层高于18000英尺

METAR: KRIC 161554Z 20005KT 9SM BKN180 28/22 A3003 RMK AO2 SLP170 T02780222

时间: 12:03 (16:03 UTC)

预报

该预报发布于4小时和43分钟前的11:20 UTC
预报有效从16日的 12点(UTC)到 17日的 12点(UTC)
风速5节,风向
能見度: 10公里
多云层高于20000英尺
从 16日的 1500点(UTC)
风速8节,风向
能見度: 10公里
散云层高于5000英尺
从 17日的 0300点(UTC)
风速6节,风向南转西南
能見度: 10公里
散云层高于20000英尺

TAF: KRIC 161120Z 1612/1712 19005KT P6SM BKN200 FM161500 18008KT P6SM SCT050 FM170300 20006KT P6SM SCT200

超过4000个机场的气象观测和天气预报(METAR&TAF报告)。

可查询的气象台以黄色和红色小点在地图上表示。

将鼠标移到小点上方,可查看气象台名称。

然后点击查看天气观测和预报。

如需切换地图:点击带黑十字的绿色按钮放大地图;点击带横线的绿色按钮缩小地图;或者点击绿色箭头查看邻近地区的地图。


METAR-TAF: